sensor_id;sensor_type;location;lat;lon;timestamp;pressure;altitude;pressure_sealevel;temperature;humidity
63088;BME280;49173;43.164;27.786;2023-03-21T00:00:17;100604.59;;;8.66;90.08
63088;BME280;49173;43.164;27.786;2023-03-21T00:02:57;100602.84;;;8.65;89.96
63088;BME280;49173;43.164;27.786;2023-03-21T00:05:22;100600.66;;;8.55;90.18
63088;BME280;49173;43.164;27.786;2023-03-21T00:07:48;100595.63;;;8.47;90.69
63088;BME280;49173;43.164;27.786;2023-03-21T00:10:14;100583.56;;;8.37;91.22
63088;BME280;49173;43.164;27.786;2023-03-21T00:12:40;100598.50;;;8.42;91.72
63088;BME280;49173;43.164;27.786;2023-03-21T00:15:10;100580.63;;;8.43;91.55
63088;BME280;49173;43.164;27.786;2023-03-21T00:17:37;100586.00;;;8.43;91.67
63088;BME280;49173;43.164;27.786;2023-03-21T00:20:06;100583.13;;;8.47;91.52
63088;BME280;49173;43.164;27.786;2023-03-21T00:22:39;100583.84;;;8.51;91.69
63088;BME280;49173;43.164;27.786;2023-03-21T00:25:07;100581.09;;;8.52;91.29
63088;BME280;49173;43.164;27.786;2023-03-21T00:27:33;100581.84;;;8.56;91.25
63088;BME280;49173;43.164;27.786;2023-03-21T00:29:59;100581.78;;;8.58;91.23
63088;BME280;49173;43.164;27.786;2023-03-21T00:32:25;100578.91;;;8.62;90.97
63088;BME280;49173;43.164;27.786;2023-03-21T00:34:51;100556.72;;;8.60;90.99
63088;BME280;49173;43.164;27.786;2023-03-21T00:37:17;100561.13;;;8.61;91.27
63088;BME280;49173;43.164;27.786;2023-03-21T00:39:45;100562.53;;;8.49;91.76
63088;BME280;49173;43.164;27.786;2023-03-21T00:42:16;100556.81;;;8.37;92.21
63088;BME280;49173;43.164;27.786;2023-03-21T00:44:43;100568.56;;;8.33;92.70
63088;BME280;49173;43.164;27.786;2023-03-21T00:47:12;100564.94;;;8.35;93.10
63088;BME280;49173;43.164;27.786;2023-03-21T00:49:38;100568.56;;;8.33;93.14
63088;BME280;49173;43.164;27.786;2023-03-21T00:52:06;100567.47;;;8.38;93.16
63088;BME280;49173;43.164;27.786;2023-03-21T00:54:34;100559.38;;;8.40;93.04
63088;BME280;49173;43.164;27.786;2023-03-21T00:57:00;100564.94;;;8.35;92.93
63088;BME280;49173;43.164;27.786;2023-03-21T00:59:28;100556.75;;;8.38;93.12
63088;BME280;49173;43.164;27.786;2023-03-21T01:01:54;100560.38;;;8.37;93.17
63088;BME280;49173;43.164;27.786;2023-03-21T01:04:20;100549.69;;;8.37;92.89
63088;BME280;49173;43.164;27.786;2023-03-21T01:06:51;100552.47;;;8.34;93.04
63088;BME280;49173;43.164;27.786;2023-03-21T01:09:20;100547.97;;;8.35;93.10
63088;BME280;49173;43.164;27.786;2023-03-21T01:11:48;100548.06;;;8.33;93.36
63088;BME280;49173;43.164;27.786;2023-03-21T01:14:15;100538.09;;;8.37;93.90
63088;BME280;49173;43.164;27.786;2023-03-21T01:16:43;100554.22;;;8.35;93.24
63088;BME280;49173;43.164;27.786;2023-03-21T01:19:13;100555.88;;;8.38;93.35
63088;BME280;49173;43.164;27.786;2023-03-21T01:21:40;100549.91;;;8.31;93.34
63088;BME280;49173;43.164;27.786;2023-03-21T01:24:06;100551.59;;;8.34;93.67
63088;BME280;49173;43.164;27.786;2023-03-21T01:26:33;100548.13;;;8.32;93.89
63088;BME280;49173;43.164;27.786;2023-03-21T01:28:58;100551.91;;;8.26;93.94
63088;BME280;49173;43.164;27.786;2023-03-21T01:31:24;100550.13;;;8.26;93.96
63088;BME280;49173;43.164;27.786;2023-03-21T01:33:50;100533.53;;;8.18;94.43
63088;BME280;49173;43.164;27.786;2023-03-21T01:36:19;100542.34;;;8.20;94.67
63088;BME280;49173;43.164;27.786;2023-03-21T01:38:47;100535.06;;;8.24;94.75
63088;BME280;49173;43.164;27.786;2023-03-21T01:41:36;100522.78;;;8.20;95.09
63088;BME280;49173;43.164;27.786;2023-03-21T01:44:03;100528.31;;;8.15;95.30
63088;BME280;49173;43.164;27.786;2023-03-21T01:49:31;100518.28;;;8.20;95.60
63088;BME280;49173;43.164;27.786;2023-03-21T01:52:03;100523.44;;;8.25;95.77
63088;BME280;49173;43.164;27.786;2023-03-21T01:54:35;100517.28;;;8.23;95.22
63088;BME280;49173;43.164;27.786;2023-03-21T01:57:12;100518.41;;;8.17;95.71
63088;BME280;49173;43.164;27.786;2023-03-21T01:59:44;100507.78;;;8.16;95.99
63088;BME280;49173;43.164;27.786;2023-03-21T02:02:15;100509.47;;;8.18;96.21
63088;BME280;49173;43.164;27.786;2023-03-21T02:04:42;100500.84;;;8.12;96.56
63088;BME280;49173;43.164;27.786;2023-03-21T02:07:29;100498.34;;;8.07;96.81
63088;BME280;49173;43.164;27.786;2023-03-21T02:09:57;100503.78;;;8.06;97.39
63088;BME280;49173;43.164;27.786;2023-03-21T02:12:24;100516.00;;;8.11;97.21
63088;BME280;49173;43.164;27.786;2023-03-21T02:14:51;100518.63;;;8.13;97.11
63088;BME280;49173;43.164;27.786;2023-03-21T02:17:27;100527.97;;;8.23;96.80
63088;BME280;49173;43.164;27.786;2023-03-21T02:22:56;100522.06;;;8.37;96.08
63088;BME280;49173;43.164;27.786;2023-03-21T02:28:25;100518.63;;;8.33;95.93
63088;BME280;49173;43.164;27.786;2023-03-21T02:36:47;100511.25;;;8.40;95.84
63088;BME280;49173;43.164;27.786;2023-03-21T02:44:42;100519.75;;;8.27;96.15
63088;BME280;49173;43.164;27.786;2023-03-21T02:47:18;100524.34;;;8.24;96.33
63088;BME280;49173;43.164;27.786;2023-03-21T02:49:55;100525.56;;;8.17;96.59
63088;BME280;49173;43.164;27.786;2023-03-21T02:52:28;100523.81;;;8.16;96.75
63088;BME280;49173;43.164;27.786;2023-03-21T02:54:56;100524.56;;;8.19;97.07
63088;BME280;49173;43.164;27.786;2023-03-21T02:57:23;100515.44;;;8.25;96.88
63088;BME280;49173;43.164;27.786;2023-03-21T02:59:49;100504.50;;;8.30;96.64
63088;BME280;49173;43.164;27.786;2023-03-21T03:02:20;100508.00;;;8.32;96.54
63088;BME280;49173;43.164;27.786;2023-03-21T03:04:47;100508.91;;;8.31;96.56
63088;BME280;49173;43.164;27.786;2023-03-21T03:07:39;100523.16;;;8.31;96.25
63088;BME280;49173;43.164;27.786;2023-03-21T03:18:32;100513.59;;;8.05;97.22
63088;BME280;49173;43.164;27.786;2023-03-21T03:21:17;100505.50;;;8.07;97.51
63088;BME280;49173;43.164;27.786;2023-03-21T03:28:59;100504.63;;;8.06;98.29
63088;BME280;49173;43.164;27.786;2023-03-21T03:31:32;100495.50;;;8.12;97.96
63088;BME280;49173;43.164;27.786;2023-03-21T03:34:04;100499.75;;;8.16;97.76
63088;BME280;49173;43.164;27.786;2023-03-21T03:36:34;100498.97;;;8.14;97.36
63088;BME280;49173;43.164;27.786;2023-03-21T03:39:09;100510.06;;;8.05;97.32
63088;BME280;49173;43.164;27.786;2023-03-21T03:41:49;100515.50;;;8.02;97.40
63088;BME280;49173;43.164;27.786;2023-03-21T03:44:16;100528.88;;;8.02;98.18
63088;BME280;49173;43.164;27.786;2023-03-21T03:46:50;100520.75;;;8.05;98.04
63088;BME280;49173;43.164;27.786;2023-03-21T03:49:23;100517.22;;;8.04;98.03
63088;BME280;49173;43.164;27.786;2023-03-21T03:51:57;100498.28;;;8.09;97.87
63088;BME280;49173;43.164;27.786;2023-03-21T03:54:42;100505.25;;;8.13;97.72
63088;BME280;49173;43.164;27.786;2023-03-21T03:57:08;100502.69;;;8.10;97.56
63088;BME280;49173;43.164;27.786;2023-03-21T03:59:37;100502.97;;;8.04;97.96
63088;BME280;49173;43.164;27.786;2023-03-21T04:02:03;100497.63;;;8.04;98.17
63088;BME280;49173;43.164;27.786;2023-03-21T04:04:30;100503.63;;;8.09;98.13
63088;BME280;49173;43.164;27.786;2023-03-21T04:06:56;100493.00;;;8.07;98.44
63088;BME280;49173;43.164;27.786;2023-03-21T04:09:23;100502.56;;;8.13;98.22
63088;BME280;49173;43.164;27.786;2023-03-21T04:11:49;100508.72;;;8.15;98.13
63088;BME280;49173;43.164;27.786;2023-03-21T04:14:15;100509.41;;;8.20;97.89
63088;BME280;49173;43.164;27.786;2023-03-21T04:16:41;100505.25;;;8.13;97.60
63088;BME280;49173;43.164;27.786;2023-03-21T04:19:07;100502.03;;;8.05;98.10
63088;BME280;49173;43.164;27.786;2023-03-21T04:21:33;100503.09;;;8.01;98.53
63088;BME280;49173;43.164;27.786;2023-03-21T04:23:59;100499.47;;;8.02;98.84
63088;BME280;49173;43.164;27.786;2023-03-21T04:26:25;100495.88;;;8.03;98.66
63088;BME280;49173;43.164;27.786;2023-03-21T04:28:58;100504.56;;;8.08;98.60
63088;BME280;49173;43.164;27.786;2023-03-21T04:31:28;100499.13;;;8.11;98.48
63088;BME280;49173;43.164;27.786;2023-03-21T04:33:57;100500.97;;;8.09;98.35
63088;BME280;49173;43.164;27.786;2023-03-21T04:36:24;100512.66;;;8.06;98.29
63088;BME280;49173;43.164;27.786;2023-03-21T04:38:56;100521.69;;;8.04;98.55
63088;BME280;49173;43.164;27.786;2023-03-21T04:41:28;100514.88;;;7.96;98.92
63088;BME280;49173;43.164;27.786;2023-03-21T04:43:54;100516.06;;;7.89;99.25
63088;BME280;49173;43.164;27.786;2023-03-21T04:46:21;100521.50;;;7.86;99.95
63088;BME280;49173;43.164;27.786;2023-03-21T04:48:47;100520.50;;;7.89;100.00
63088;BME280;49173;43.164;27.786;2023-03-21T04:51:14;100525.56;;;7.96;100.00
63088;BME280;49173;43.164;27.786;2023-03-21T04:53:40;100521.72;;;8.02;100.00
63088;BME280;49173;43.164;27.786;2023-03-21T04:56:10;100515.16;;;8.11;100.00
63088;BME280;49173;43.164;27.786;2023-03-21T04:58:36;100504.47;;;8.11;99.72
63088;BME280;49173;43.164;27.786;2023-03-21T05:01:06;100516.00;;;8.11;99.83
63088;BME280;49173;43.164;27.786;2023-03-21T05:03:32;100521.16;;;8.16;99.79
63088;BME280;49173;43.164;27.786;2023-03-21T05:06:00;100509.50;;;8.17;99.77
63088;BME280;49173;43.164;27.786;2023-03-21T05:08:26;100509.41;;;8.20;100.00
63088;BME280;49173;43.164;27.786;2023-03-21T05:10:51;100510.19;;;8.22;99.96
63088;BME280;49173;43.164;27.786;2023-03-21T05:13:17;100514.00;;;8.16;100.00
63088;BME280;49173;43.164;27.786;2023-03-21T05:15:43;100507.59;;;8.20;100.00
63088;BME280;49173;43.164;27.786;2023-03-21T05:18:09;100504.13;;;8.18;100.00
63088;BME280;49173;43.164;27.786;2023-03-21T05:20:38;100514.84;;;8.17;100.00
63088;BME280;49173;43.164;27.786;2023-03-21T05:23:09;100502.69;;;8.10;100.00
63088;BME280;49173;43.164;27.786;2023-03-21T05:25:38;100517.00;;;8.09;100.00
63088;BME280;49173;43.164;27.786;2023-03-21T05:28:06;100505.56;;;8.05;100.00
63088;BME280;49173;43.164;27.786;2023-03-21T05:30:37;100513.53;;;8.07;100.00
63088;BME280;49173;43.164;27.786;2023-03-21T05:33:03;100510.00;;;8.06;100.00
63088;BME280;49173;43.164;27.786;2023-03-21T05:35:31;100520.59;;;8.08;100.00
63088;BME280;49173;43.164;27.786;2023-03-21T05:37:57;100515.94;;;8.13;100.00
63088;BME280;49173;43.164;27.786;2023-03-21T05:40:24;100513.13;;;8.16;100.00
63088;BME280;49173;43.164;27.786;2023-03-21T05:42:52;100519.47;;;8.13;100.00
63088;BME280;49173;43.164;27.786;2023-03-21T05:45:19;100527.25;;;8.19;100.00
63088;BME280;49173;43.164;27.786;2023-03-21T05:47:50;100525.38;;;8.21;100.00
63088;BME280;49173;43.164;27.786;2023-03-21T05:50:16;100520.81;;;8.23;100.00
63088;BME280;49173;43.164;27.786;2023-03-21T05:52:44;100526.13;;;8.25;100.00
63088;BME280;49173;43.164;27.786;2023-03-21T05:55:15;100526.91;;;8.27;100.00
63088;BME280;49173;43.164;27.786;2023-03-21T05:57:42;100532.13;;;8.30;100.00
63088;BME280;49173;43.164;27.786;2023-03-21T06:00:13;100536.31;;;8.37;100.00
63088;BME280;49173;43.164;27.786;2023-03-21T06:02:40;100538.72;;;8.43;100.00
63088;BME280;49173;43.164;27.786;2023-03-21T06:05:07;100551.16;;;8.44;100.00
63088;BME280;49173;43.164;27.786;2023-03-21T06:07:36;100544.59;;;8.51;100.00
63088;BME280;49173;43.164;27.786;2023-03-21T06:10:06;100536.72;;;8.48;100.00
63088;BME280;49173;43.164;27.786;2023-03-21T06:12:33;100539.41;;;8.48;100.00
63088;BME280;49173;43.164;27.786;2023-03-21T06:14:59;100538.09;;;8.37;100.00
63088;BME280;49173;43.164;27.786;2023-03-21T06:17:29;100542.63;;;8.35;100.00
63088;BME280;49173;43.164;27.786;2023-03-21T06:19:57;100534.59;;;8.35;100.00
63088;BME280;49173;43.164;27.786;2023-03-21T06:22:28;100542.72;;;8.33;100.00
63088;BME280;49173;43.164;27.786;2023-03-21T06:24:57;100535.63;;;8.32;100.00
63088;BME280;49173;43.164;27.786;2023-03-21T06:27:25;100526.66;;;8.33;100.00
63088;BME280;49173;43.164;27.786;2023-03-21T06:29:55;100535.19;;;8.43;100.00
63088;BME280;49173;43.164;27.786;2023-03-21T06:32:26;100529.63;;;8.47;100.00
63088;BME280;49173;43.164;27.786;2023-03-21T06:34:55;100526.13;;;8.45;100.00
63088;BME280;49173;43.164;27.786;2023-03-21T06:37:22;100540.34;;;8.47;100.00
63088;BME280;49173;43.164;27.786;2023-03-21T06:39:48;100561.66;;;8.49;100.00
63088;BME280;49173;43.164;27.786;2023-03-21T06:42:15;100563.84;;;8.60;100.00
63088;BME280;49173;43.164;27.786;2023-03-21T06:44:41;100529.16;;;8.58;100.00
63088;BME280;49173;43.164;27.786;2023-03-21T06:47:10;100528.22;;;8.59;100.00
63088;BME280;49173;43.164;27.786;2023-03-21T06:49:37;100538.00;;;8.60;100.00
63088;BME280;49173;43.164;27.786;2023-03-21T06:52:05;100545.81;;;8.65;100.00
63088;BME280;49173;43.164;27.786;2023-03-21T06:54:32;100540.97;;;8.73;100.00
63088;BME280;49173;43.164;27.786;2023-03-21T06:56:58;100529.38;;;8.74;100.00
63088;BME280;49173;43.164;27.786;2023-03-21T06:59:26;100525.59;;;8.78;100.00
63088;BME280;49173;43.164;27.786;2023-03-21T07:01:52;100533.50;;;8.81;100.00
63088;BME280;49173;43.164;27.786;2023-03-21T07:04:18;100528.88;;;8.85;100.00
63088;BME280;49173;43.164;27.786;2023-03-21T07:06:46;100535.94;;;8.86;100.00
63088;BME280;49173;43.164;27.786;2023-03-21T07:09:12;100524.19;;;8.90;100.00
63088;BME280;49173;43.164;27.786;2023-03-21T07:11:40;100527.72;;;8.90;100.00
63088;BME280;49173;43.164;27.786;2023-03-21T07:14:11;100537.63;;;8.88;100.00
63088;BME280;49173;43.164;27.786;2023-03-21T07:16:38;100540.94;;;8.93;100.00
63088;BME280;49173;43.164;27.786;2023-03-21T07:19:08;100530.72;;;9.03;100.00
63088;BME280;49173;43.164;27.786;2023-03-21T07:21:38;100512.84;;;9.03;100.00
63088;BME280;49173;43.164;27.786;2023-03-21T07:24:05;100495.91;;;9.03;100.00
63088;BME280;49173;43.164;27.786;2023-03-21T07:26:32;100515.50;;;9.03;100.00
63088;BME280;49173;43.164;27.786;2023-03-21T07:28:59;100535.84;;;9.07;100.00
63088;BME280;49173;43.164;27.786;2023-03-21T07:31:27;100550.09;;;9.08;100.00
63088;BME280;49173;43.164;27.786;2023-03-21T07:33:56;100538.75;;;9.03;100.00
63088;BME280;49173;43.164;27.786;2023-03-21T07:36:24;100519.25;;;8.99;100.00
63088;BME280;49173;43.164;27.786;2023-03-21T07:38:51;100514.84;;;8.98;100.00
63088;BME280;49173;43.164;27.786;2023-03-21T07:41:17;100517.44;;;9.00;100.00
63088;BME280;49173;43.164;27.786;2023-03-21T07:43:43;100510.22;;;9.02;100.00
63088;BME280;49173;43.164;27.786;2023-03-21T07:46:11;100501.38;;;9.00;100.00
63088;BME280;49173;43.164;27.786;2023-03-21T07:48:37;100501.63;;;8.95;100.00
63088;BME280;49173;43.164;27.786;2023-03-21T07:51:04;100489.97;;;8.96;100.00
63088;BME280;49173;43.164;27.786;2023-03-21T07:53:32;100478.59;;;8.91;100.00
63088;BME280;49173;43.164;27.786;2023-03-21T07:55:58;100469.53;;;8.94;100.00
63088;BME280;49173;43.164;27.786;2023-03-21T07:58:25;100509.66;;;8.95;100.00
63088;BME280;49173;43.164;27.786;2023-03-21T08:00:53;100534.38;;;9.00;100.00
63088;BME280;49173;43.164;27.786;2023-03-21T08:03:22;100517.53;;;8.98;100.00
63088;BME280;49173;43.164;27.786;2023-03-21T08:05:51;100495.38;;;8.95;100.00
63088;BME280;49173;43.164;27.786;2023-03-21T08:08:18;100495.44;;;8.93;100.00
63088;BME280;49173;43.164;27.786;2023-03-21T08:10:46;100505.78;;;9.01;100.00
63088;BME280;49173;43.164;27.786;2023-03-21T08:13:12;100509.28;;;9.03;100.00
63088;BME280;49173;43.164;27.786;2023-03-21T08:15:38;100507.31;;;9.06;100.00
63088;BME280;49173;43.164;27.786;2023-03-21T08:18:08;100512.41;;;9.13;100.00
63088;BME280;49173;43.164;27.786;2023-03-21T08:20:37;100514.88;;;9.17;100.00
63088;BME280;49173;43.164;27.786;2023-03-21T08:23:03;100513.69;;;9.23;100.00
63088;BME280;49173;43.164;27.786;2023-03-21T08:25:29;100517.19;;;9.25;100.00
63088;BME280;49173;43.164;27.786;2023-03-21T08:27:56;100515.00;;;9.33;100.00
63088;BME280;49173;43.164;27.786;2023-03-21T08:30:23;100496.09;;;9.36;100.00
63088;BME280;49173;43.164;27.786;2023-03-21T08:32:55;100493.94;;;9.44;100.00
63088;BME280;49173;43.164;27.786;2023-03-21T08:35:22;100494.75;;;9.46;100.00
63088;BME280;49173;43.164;27.786;2023-03-21T08:37:49;100499.81;;;9.52;100.00
63088;BME280;49173;43.164;27.786;2023-03-21T08:40:18;100499.72;;;9.54;100.00
63088;BME280;49173;43.164;27.786;2023-03-21T08:42:46;100479.06;;;9.56;100.00
63088;BME280;49173;43.164;27.786;2023-03-21T08:45:16;100480.97;;;9.54;100.00
63088;BME280;49173;43.164;27.786;2023-03-21T08:47:43;100504.91;;;9.57;100.00
63088;BME280;49173;43.164;27.786;2023-03-21T08:50:12;100501.94;;;9.63;99.97
63088;BME280;49173;43.164;27.786;2023-03-21T08:52:44;100501.09;;;9.62;99.74
63088;BME280;49173;43.164;27.786;2023-03-21T08:55:12;100502.72;;;9.65;99.46
63088;BME280;49173;43.164;27.786;2023-03-21T08:57:41;100510.78;;;9.65;99.08
63088;BME280;49173;43.164;27.786;2023-03-21T09:00:11;100509.34;;;9.58;99.01
63088;BME280;49173;43.164;27.786;2023-03-21T09:02:40;100511.88;;;9.61;98.93
63088;BME280;49173;43.164;27.786;2023-03-21T09:05:08;100502.81;;;9.63;99.30
63088;BME280;49173;43.164;27.786;2023-03-21T09:07:38;100509.53;;;9.72;99.07
63088;BME280;49173;43.164;27.786;2023-03-21T09:10:10;100508.22;;;9.81;98.56
63088;BME280;49173;43.164;27.786;2023-03-21T09:12:39;100511.13;;;9.76;98.37
63088;BME280;49173;43.164;27.786;2023-03-21T09:15:07;100505.59;;;9.79;97.94
63088;BME280;49173;43.164;27.786;2023-03-21T09:17:34;100495.81;;;9.78;97.82
63088;BME280;49173;43.164;27.786;2023-03-21T09:20:02;100495.91;;;9.77;97.94
63088;BME280;49173;43.164;27.786;2023-03-21T09:22:38;100507.56;;;9.76;97.82
63088;BME280;49173;43.164;27.786;2023-03-21T09:25:06;100507.78;;;9.71;98.08
63088;BME280;49173;43.164;27.786;2023-03-21T09:27:38;100505.13;;;9.71;98.13
63088;BME280;49173;43.164;27.786;2023-03-21T09:30:05;100503.31;;;9.72;97.93
63088;BME280;49173;43.164;27.786;2023-03-21T09:32:33;100509.53;;;9.72;98.07
63088;BME280;49173;43.164;27.786;2023-03-21T09:35:02;100507.50;;;9.77;98.00
63088;BME280;49173;43.164;27.786;2023-03-21T09:37:30;100508.22;;;9.81;97.70
63088;BME280;49173;43.164;27.786;2023-03-21T09:40:01;100514.47;;;9.81;97.00
63088;BME280;49173;43.164;27.786;2023-03-21T09:46:04;100517.66;;;9.71;96.78
63088;BME280;49173;43.164;27.786;2023-03-21T09:51:43;100510.63;;;9.68;98.06
63088;BME280;49173;43.164;27.786;2023-03-21T09:54:25;100514.97;;;9.71;97.64
63088;BME280;49173;43.164;27.786;2023-03-21T09:56:54;100512.44;;;9.68;98.26
63088;BME280;49173;43.164;27.786;2023-03-21T09:59:41;100513.22;;;9.70;98.03
63088;BME280;49173;43.164;27.786;2023-03-21T10:02:20;100513.09;;;9.73;98.19
63088;BME280;49173;43.164;27.786;2023-03-21T10:05:02;100510.59;;;9.87;97.63
63088;BME280;49173;43.164;27.786;2023-03-21T10:07:39;100521.72;;;9.97;97.71
63088;BME280;49173;43.164;27.786;2023-03-21T10:10:15;100516.75;;;10.06;97.29
63088;BME280;49173;43.164;27.786;2023-03-21T10:12:45;100517.56;;;10.08;96.22
63088;BME280;49173;43.164;27.786;2023-03-21T10:15:18;100511.19;;;10.11;96.07
63088;BME280;49173;43.164;27.786;2023-03-21T10:20:24;100501.78;;;10.19;94.22
63088;BME280;49173;43.164;27.786;2023-03-21T10:22:54;100509.38;;;10.29;94.73
63088;BME280;49173;43.164;27.786;2023-03-21T10:25:39;100516.72;;;10.42;94.45
63088;BME280;49173;43.164;27.786;2023-03-21T10:28:18;100514.03;;;10.42;93.29
63088;BME280;49173;43.164;27.786;2023-03-21T10:30:51;100514.53;;;10.33;92.60
63088;BME280;49173;43.164;27.786;2023-03-21T10:33:32;100513.44;;;10.37;92.93
63088;BME280;49173;43.164;27.786;2023-03-21T10:36:04;100506.69;;;10.29;93.28
63088;BME280;49173;43.164;27.786;2023-03-21T10:38:32;100512.78;;;10.32;93.49
63088;BME280;49173;43.164;27.786;2023-03-21T10:41:04;100508.84;;;10.39;91.98
63088;BME280;49173;43.164;27.786;2023-03-21T10:43:35;100509.22;;;10.49;92.04
63088;BME280;49173;43.164;27.786;2023-03-21T10:46:10;100510.03;;;10.51;91.92
63088;BME280;49173;43.164;27.786;2023-03-21T10:48:39;100506.53;;;10.49;91.84
63088;BME280;49173;43.164;27.786;2023-03-21T10:51:07;100508.34;;;10.49;91.28
63088;BME280;49173;43.164;27.786;2023-03-21T10:53:38;100503.41;;;10.58;92.08
63088;BME280;49173;43.164;27.786;2023-03-21T10:56:12;100499.44;;;10.65;91.66
63088;BME280;49173;43.164;27.786;2023-03-21T10:58:45;100502.19;;;10.64;90.56
63088;BME280;49173;43.164;27.786;2023-03-21T11:01:27;100501.97;;;10.51;90.85
63088;BME280;49173;43.164;27.786;2023-03-21T11:03:59;100499.94;;;10.39;91.26
63088;BME280;49173;43.164;27.786;2023-03-21T11:06:33;100503.47;;;10.39;92.57
63088;BME280;49173;43.164;27.786;2023-03-21T11:09:14;100512.84;;;10.48;92.29
63088;BME280;49173;43.164;27.786;2023-03-21T11:14:42;100506.94;;;10.59;90.95
63088;BME280;49173;43.164;27.786;2023-03-21T11:22:16;100502.13;;;10.48;90.40
63088;BME280;49173;43.164;27.786;2023-03-21T11:24:49;100502.75;;;10.36;90.95
63088;BME280;49173;43.164;27.786;2023-03-21T11:27:17;100500.41;;;10.30;91.79
63088;BME280;49173;43.164;27.786;2023-03-21T11:29:47;100499.78;;;10.25;91.87
63088;BME280;49173;43.164;27.786;2023-03-21T11:32:35;100492.22;;;10.14;92.69
63088;BME280;49173;43.164;27.786;2023-03-21T11:35:16;100487.25;;;10.06;93.48
63088;BME280;49173;43.164;27.786;2023-03-21T11:37:51;100498.47;;;10.14;93.65
63088;BME280;49173;43.164;27.786;2023-03-21T11:42:50;100494.69;;;10.18;93.44
63088;BME280;49173;43.164;27.786;2023-03-21T11:45:22;100493.66;;;10.21;93.60
63088;BME280;49173;43.164;27.786;2023-03-21T11:47:52;100481.97;;;10.24;93.60
63088;BME280;49173;43.164;27.786;2023-03-21T11:50:46;100484.94;;;10.35;93.51
63088;BME280;49173;43.164;27.786;2023-03-21T12:05:15;100463.56;;;10.33;91.32
63088;BME280;49173;43.164;27.786;2023-03-21T12:11:02;100453.53;;;10.37;91.37
63088;BME280;49173;43.164;27.786;2023-03-21T12:14:02;100453.28;;;10.41;91.67
63088;BME280;49173;43.164;27.786;2023-03-21T12:17:00;100459.69;;;10.39;92.28
63088;BME280;49173;43.164;27.786;2023-03-21T12:27:57;100448.31;;;10.51;90.01
63088;BME280;49173;43.164;27.786;2023-03-21T12:33:28;100451.78;;;10.53;90.85
63088;BME280;49173;43.164;27.786;2023-03-21T12:47:48;100450.31;;;10.30;90.70
63088;BME280;49173;43.164;27.786;2023-03-21T12:50:26;100439.66;;;10.29;90.54
63088;BME280;49173;43.164;27.786;2023-03-21T12:53:00;100435.22;;;10.28;90.67
63088;BME280;49173;43.164;27.786;2023-03-21T12:55:32;100433.69;;;10.24;90.96
63088;BME280;49173;43.164;27.786;2023-03-21T12:58:10;100439.41;;;10.16;91.67
63088;BME280;49173;43.164;27.786;2023-03-21T13:00:47;100436.19;;;10.09;91.92
63088;BME280;49173;43.164;27.786;2023-03-21T13:03:19;100426.22;;;10.11;92.22
63088;BME280;49173;43.164;27.786;2023-03-21T13:06:02;100428.84;;;9.96;92.77
63088;BME280;49173;43.164;27.786;2023-03-21T13:08:45;100416.53;;;9.91;93.53
63088;BME280;49173;43.164;27.786;2023-03-21T13:11:20;100418.25;;;9.93;93.20
63088;BME280;49173;43.164;27.786;2023-03-21T13:14:09;100425.59;;;9.89;93.47
63088;BME280;49173;43.164;27.786;2023-03-21T13:16:53;100437.66;;;9.98;93.38
63088;BME280;49173;43.164;27.786;2023-03-21T13:19:50;100416.44;;;9.93;94.05
63088;BME280;49173;43.164;27.786;2023-03-21T13:22:28;100414.50;;;9.97;94.39
63088;BME280;49173;43.164;27.786;2023-03-21T13:25:05;100424.34;;;9.96;94.53
63088;BME280;49173;43.164;27.786;2023-03-21T13:27:34;100418.19;;;9.94;94.98
63088;BME280;49173;43.164;27.786;2023-03-21T13:30:22;100421.88;;;9.91;95.70
63088;BME280;49173;43.164;27.786;2023-03-21T13:35:43;100415.66;;;9.91;95.42
63088;BME280;49173;43.164;27.786;2023-03-21T13:38:28;100412.28;;;9.87;95.75
63088;BME280;49173;43.164;27.786;2023-03-21T13:41:11;100409.06;;;9.81;95.90
63088;BME280;49173;43.164;27.786;2023-03-21T13:43:44;100405.91;;;9.73;95.93
63088;BME280;49173;43.164;27.786;2023-03-21T13:49:13;100414.41;;;9.81;96.43
63088;BME280;49173;43.164;27.786;2023-03-21T13:51:53;100409.91;;;9.81;96.06
63088;BME280;49173;43.164;27.786;2023-03-21T14:00:20;100407.63;;;9.74;95.30
63088;BME280;49173;43.164;27.786;2023-03-21T14:02:59;100408.63;;;9.71;95.11
63088;BME280;49173;43.164;27.786;2023-03-21T14:05:31;100401.63;;;9.69;94.94
63088;BME280;49173;43.164;27.786;2023-03-21T14:08:05;100395.94;;;9.57;94.68
63088;BME280;49173;43.164;27.786;2023-03-21T14:10:33;100401.25;;;9.59;94.95
63088;BME280;49173;43.164;27.786;2023-03-21T14:13:01;100405.47;;;9.63;94.82
63088;BME280;49173;43.164;27.786;2023-03-21T14:15:51;100407.75;;;9.53;94.88
63088;BME280;49173;43.164;27.786;2023-03-21T14:18:20;100410.59;;;9.50;95.20
63088;BME280;49173;43.164;27.786;2023-03-21T14:20:54;100418.69;;;9.49;95.47
63088;BME280;49173;43.164;27.786;2023-03-21T14:23:24;100408.16;;;9.46;95.71
63088;BME280;49173;43.164;27.786;2023-03-21T14:25:52;100410.88;;;9.44;95.49
63088;BME280;49173;43.164;27.786;2023-03-21T14:31:14;100399.56;;;9.39;95.44
63088;BME280;49173;43.164;27.786;2023-03-21T14:33:49;100394.63;;;9.30;95.46
63088;BME280;49173;43.164;27.786;2023-03-21T14:36:20;100394.63;;;9.30;95.86
63088;BME280;49173;43.164;27.786;2023-03-21T14:41:52;100398.13;;;9.32;95.82
63088;BME280;49173;43.164;27.786;2023-03-21T14:44:33;100400.63;;;9.35;95.84
63088;BME280;49173;43.164;27.786;2023-03-21T14:47:08;100391.72;;;9.34;96.00
63088;BME280;49173;43.164;27.786;2023-03-21T14:49:44;100383.59;;;9.36;95.31
63088;BME280;49173;43.164;27.786;2023-03-21T14:52:21;100393.63;;;9.32;94.97